Shipley, United Kingdom
Current Conditions -  °F | °C
As of 5:50 PM on Wednesday 28 Jan 2015 (Local Time) from EGNM Reporting Station
Scattered Clouds Scattered Clouds  
Wind Chill: 22°   Ceiling: Unl
Heat Index: 34°   Visibility: 6mi
Dew Point: 28°   Wind: 23mph
Humidity: 81%   Direction: 270°W
Pressure: 29.35"   Gusts: 35mph
Location:  53.83°N, 1.78°W
Report Text: EGNM 281750Z 27020G30KT 250V310 9999 FEW008 SCT013CB 01/M02 Q0994
Loading
Personal Weather Stations






























Interactive Weather Map New forecast layout! Learn more

10-Day Weather Forecast

Advertisements
Track Severe Weather on mobile